Time;durP1;ratioP1;P1;durP2;ratioP2;P2;SDS_P1;SDS_P2;PMS_P1;PMS_P2;Temp;Humidity;BMP_temperature;BMP_pressure;BME280_temperature;BME280_humidity;BME280_pressure;Samples;Min_cycle;Max_cycle;Signal;HPM_P1;HPM_P2
2023/07/28 00:01:57;;;;;;;5.60;3.17;;;;;;;17.82;100.00;100483.59;5014429;28;20045;-77
2023/07/28 00:04:22;;;;;;;6.53;3.22;;;;;;;17.82;100.00;100475.63;5022004;28;20271;-77
2023/07/28 00:06:47;;;;;;;7.85;3.20;;;;;;;17.83;100.00;100485.28;5018997;28;20065;-77
2023/07/28 00:09:13;;;;;;;12.70;4.22;;;;;;;17.82;100.00;100489.72;5016183;28;20038;-77
2023/07/28 00:11:38;;;;;;;6.07;3.47;;;;;;;17.82;100.00;100486.22;5002064;28;20383;-77
2023/07/28 00:14:04;;;;;;;9.30;4.47;;;;;;;17.81;100.00;100485.41;4999001;28;20456;-77
2023/07/28 00:16:29;;;;;;;6.47;3.65;;;;;;;17.81;100.00;100480.09;5015490;28;20037;-77
2023/07/28 00:18:54;;;;;;;5.10;3.58;;;;;;;17.81;100.00;100485.41;5016894;28;20041;-77
2023/07/28 00:21:20;;;;;;;6.60;3.78;;;;;;;17.81;100.00;100485.41;5007639;28;20084;-77
2023/07/28 00:23:45;;;;;;;8.70;3.72;;;;;;;17.82;100.00;100483.59;5016623;28;20038;-77
2023/07/28 00:26:10;;;;;;;11.70;4.35;;;;;;;17.81;100.00;100472.16;5010019;28;20030;-77
2023/07/28 00:28:36;;;;;;;6.80;4.32;;;;;;;17.83;100.00;100478.19;5016093;28;20135;-77
2023/07/28 00:31:01;;;;;;;6.57;3.88;;;;;;;17.83;100.00;100474.69;5007021;28;20056;-77
2023/07/28 00:33:27;;;;;;;10.40;3.60;;;;;;;17.82;100.00;100473.81;5015859;28;20037;-77
2023/07/28 00:35:52;;;;;;;7.60;3.42;;;;;;;17.81;100.00;100469.50;5020872;28;20064;-77
2023/07/28 00:38:18;;;;;;;7.32;4.22;;;;;;;17.83;100.00;100469.41;5015306;28;20034;-77
2023/07/28 00:40:43;;;;;;;5.88;4.38;;;;;;;17.82;100.00;100468.53;5008679;28;20029;-77
2023/07/28 00:43:08;;;;;;;7.35;3.90;;;;;;;17.81;100.00;100474.81;5015774;28;20059;-77
2023/07/28 00:45:34;;;;;;;6.85;4.18;;;;;;;17.83;100.00;100477.34;5006124;28;20046;-77
2023/07/28 00:48:00;;;;;;;9.77;4.93;;;;;;;17.83;100.00;100475.53;4998181;28;20350;-77
2023/07/28 00:50:26;;;;;;;5.38;3.95;;;;;;;17.84;100.00;100486.97;5005769;28;20062;-77
2023/07/28 00:52:51;;;;;;;7.88;3.97;;;;;;;17.83;100.00;100483.47;5014143;28;20284;-77
2023/07/28 00:55:17;;;;;;;5.20;4.25;;;;;;;17.83;100.00;100486.13;5015392;28;20451;-77
2023/07/28 00:57:43;;;;;;;7.43;4.32;;;;;;;17.83;100.00;100483.47;4999911;28;20296;-77
2023/07/28 01:00:09;;;;;;;6.53;4.35;;;;;;;17.82;100.00;100473.81;5003236;28;20040;-77
2023/07/28 01:02:36;;;;;;;6.18;4.40;;;;;;;17.83;100.00;100474.69;5010913;28;20327;-77
2023/07/28 01:05:02;;;;;;;8.77;4.30;;;;;;;17.82;100.00;100476.47;5018091;28;20347;-77
2023/07/28 01:07:38;;;;;;;10.85;5.28;;;;;;;17.83;100.00;100475.53;5020858;28;20037;-77
2023/07/28 01:10:12;;;;;;;7.32;4.75;;;;;;;17.83;100.00;100477.34;5005081;28;20264;-77
2023/07/28 01:12:38;;;;;;;6.85;4.03;;;;;;;17.84;100.00;100476.38;5010076;28;20249;-77
2023/07/28 01:15:03;;;;;;;12.82;5.18;;;;;;;17.83;100.00;100480.00;5015605;28;20057;-77
2023/07/28 01:17:29;;;;;;;8.27;4.72;;;;;;;17.83;100.00;100472.88;5014163;28;20057;-77
2023/07/28 01:19:54;;;;;;;7.82;4.57;;;;;;;17.83;100.00;100478.19;5015798;28;20034;-77
2023/07/28 01:22:44;;;;;;;7.20;4.38;;;;;;;17.84;100.00;100479.00;5005760;28;20102;-77
2023/07/28 01:25:39;;;;;;;10.15;4.10;;;;;;;17.84;100.00;100473.72;5015649;28;20295;-77
2023/07/28 01:28:05;;;;;;;8.63;4.03;;;;;;;17.84;100.00;100471.06;4999417;28;20276;-77
2023/07/28 01:30:31;;;;;;;7.13;4.20;;;;;;;17.84;100.00;100477.22;5000146;28;20045;-77
2023/07/28 01:32:57;;;;;;;12.73;5.47;;;;;;;17.83;100.00;100464.94;5000672;28;20072;-77
2023/07/28 01:35:23;;;;;;;7.22;4.25;;;;;;;17.84;100.00;100465.78;5023499;28;20309;-77
2023/07/28 01:37:50;;;;;;;10.00;4.28;;;;;;;17.84;100.00;100469.28;5003370;28;20265;-77
2023/07/28 01:40:19;;;;;;;11.38;4.40;;;;;;;17.83;100.00;100464.94;5005257;28;20273;-77
2023/07/28 01:42:45;;;;;;;9.93;4.05;;;;;;;17.83;100.00;100470.22;5004003;28;20046;-77
2023/07/28 01:45:10;;;;;;;10.70;4.90;;;;;;;17.85;100.00;100478.09;4995263;28;20358;-77
2023/07/28 01:47:36;;;;;;;8.93;3.83;;;;;;;17.84;100.00;100477.22;5005302;28;20263;-77
2023/07/28 01:50:02;;;;;;;14.20;4.95;;;;;;;17.84;100.00;100481.66;5015119;28;20049;-77
2023/07/28 01:52:27;;;;;;;7.75;3.88;;;;;;;17.84;100.00;100482.53;5010067;28;20108;-77
2023/07/28 01:54:52;;;;;;;8.63;4.47;;;;;;;17.84;100.00;100481.66;5004913;28;20033;-77
2023/07/28 01:57:18;;;;;;;10.20;4.82;;;;;;;17.84;100.00;100485.19;5011365;28;20109;-77
2023/07/28 01:59:43;;;;;;;12.10;4.25;;;;;;;17.85;100.00;100478.09;4999511;28;20041;-77
2023/07/28 02:02:09;;;;;;;9.38;4.25;;;;;;;17.86;100.00;100481.56;5003871;28;20315;-77
2023/07/28 02:04:35;;;;;;;14.07;5.53;;;;;;;17.86;100.00;100481.56;5025666;28;20092;-77
2023/07/28 02:07:00;;;;;;;9.13;4.22;;;;;;;17.86;100.00;100476.28;5034826;28;20100;-77
2023/07/28 02:09:26;;;;;;;12.45;5.53;;;;;;;17.85;100.00;100475.44;5017940;28;20105;-77
2023/07/28 02:11:52;;;;;;;14.55;5.78;;;;;;;17.85;100.00;100472.81;5017519;28;20240;-77
2023/07/28 02:14:17;;;;;;;9.05;4.47;;;;;;;17.86;100.00;100484.22;4998444;28;20022;-77
2023/07/28 02:16:43;;;;;;;6.75;4.43;;;;;;;17.87;100.00;100470.03;4999690;28;20038;-77
2023/07/28 02:19:08;;;;;;;10.70;4.47;;;;;;;17.86;100.00;100473.63;5018823;28;20033;-77
2023/07/28 02:21:33;;;;;;;9.85;4.70;;;;;;;17.87;100.00;100477.97;5018505;28;20403;-77
2023/07/28 02:23:59;;;;;;;6.68;4.60;;;;;;;17.86;100.00;100479.75;5000564;28;20029;-77
2023/07/28 02:26:25;;;;;;;10.68;4.63;;;;;;;17.87;100.00;100481.47;5018090;28;20049;-77
2023/07/28 02:28:50;;;;;;;9.20;4.78;;;;;;;17.87;100.00;100475.34;5002195;28;20042;-77
2023/07/28 02:31:15;;;;;;;8.45;4.55;;;;;;;17.87;100.00;100475.34;5018662;28;20036;-77
2023/07/28 02:33:41;;;;;;;6.80;4.55;;;;;;;17.87;100.00;100477.97;5004155;28;20104;-77
2023/07/28 02:36:06;;;;;;;9.02;4.18;;;;;;;17.86;100.00;100479.75;5012924;28;20030;-77
2023/07/28 02:38:31;;;;;;;11.55;4.55;;;;;;;17.86;100.00;100482.41;5009881;28;20108;-77
2023/07/28 02:40:57;;;;;;;9.88;4.80;;;;;;;17.87;100.00;100480.63;5018254;28;20325;-77
2023/07/28 02:43:22;;;;;;;12.30;5.13;;;;;;;17.88;100.00;100483.13;5016525;28;20119;-77
2023/07/28 02:45:57;;;;;;;9.52;4.50;;;;;;;17.88;100.00;100484.94;5017672;28;20305;-77
2023/07/28 02:48:23;;;;;;;14.05;6.28;;;;;;;17.88;100.00;100483.13;5015547;28;20041;-77
2023/07/28 02:50:50;;;;;;;6.68;4.78;;;;;;;17.88;100.00;100482.31;5003770;28;20072;-77
2023/07/28 02:53:16;;;;;;;6.15;4.30;;;;;;;17.88;100.00;100484.94;4998624;28;20033;-77
2023/07/28 02:55:42;;;;;;;12.68;6.05;;;;;;;17.89;100.00;100489.31;4998280;28;20102;-77
2023/07/28 02:58:08;;;;;;;11.30;5.07;;;;;;;17.87;100.00;100484.13;5005006;28;20045;-77
2023/07/28 03:00:36;;;;;;;9.15;4.82;;;;;;;17.88;100.00;100485.78;5017601;28;20021;-76
2023/07/28 03:03:02;;;;;;;12.38;5.57;;;;;;;17.89;100.00;100486.66;5010956;28;20085;-76
2023/07/28 03:05:27;;;;;;;11.40;4.97;;;;;;;17.89;100.00;100491.94;5026586;28;20060;-76
2023/07/28 03:07:53;;;;;;;10.43;4.85;;;;;;;17.89;100.00;100500.72;5021909;28;20042;-76
2023/07/28 03:10:18;;;;;;;9.27;4.57;;;;;;;17.89;100.00;100497.25;5006713;28;20105;-76
2023/07/28 03:12:44;;;;;;;18.35;5.53;;;;;;;17.90;100.00;100504.22;5016619;28;20292;-76
2023/07/28 03:15:09;;;;;;;11.23;5.45;;;;;;;17.90;100.00;100506.88;5017141;28;20275;-76
2023/07/28 03:17:35;;;;;;;7.28;4.75;;;;;;;17.89;100.00;100502.53;5016314;28;20044;-76
2023/07/28 03:20:00;;;;;;;17.25;5.00;;;;;;;17.89;100.00;100500.72;4997876;28;20328;-76
2023/07/28 03:22:25;;;;;;;12.57;4.82;;;;;;;17.90;100.00;100507.72;4989293;28;20057;-76
2023/07/28 03:24:51;;;;;;;8.80;4.60;;;;;;;17.89;100.00;100497.25;5014765;28;20095;-76
2023/07/28 03:27:16;;;;;;;7.68;4.95;;;;;;;17.90;100.00;100501.56;5016677;28;20033;-76
2023/07/28 03:29:42;;;;;;;7.30;4.30;;;;;;;17.89;100.00;100497.25;5002016;28;20030;-76
2023/07/28 03:32:08;;;;;;;8.73;5.28;;;;;;;17.89;100.00;100495.44;5009618;28;20030;-76
2023/07/28 03:34:33;;;;;;;11.40;5.63;;;;;;;17.90;100.00;100498.91;5021609;28;20410;-76
2023/07/28 03:36:59;;;;;;;15.57;6.68;;;;;;;17.90;100.00;100501.56;5036530;28;20041;-76
2023/07/28 03:39:24;;;;;;;11.38;5.63;;;;;;;17.90;100.00;100506.88;5018814;28;20061;-76
2023/07/28 03:41:49;;;;;;;8.77;5.20;;;;;;;17.90;100.00;100504.22;5016970;28;20053;-76
2023/07/28 03:44:16;;;;;;;12.05;5.95;;;;;;;17.91;100.00;100505.91;5015992;28;20205;-76
2023/07/28 03:46:41;;;;;;;9.38;5.32;;;;;;;17.92;100.00;100510.22;5016835;28;20309;-76
2023/07/28 03:49:07;;;;;;;7.63;5.20;;;;;;;17.90;100.00;100513.03;5008283;28;20109;-76
2023/07/28 03:51:32;;;;;;;11.40;4.90;;;;;;;17.91;100.00;100516.50;4996328;28;20040;-76
2023/07/28 03:53:57;;;;;;;12.15;6.00;;;;;;;17.91;100.00;100525.28;5001818;28;20133;-76
2023/07/28 03:56:23;;;;;;;12.05;5.53;;;;;;;17.91;100.00;100520.00;5016004;28;20049;-76
2023/07/28 03:58:48;;;;;;;7.15;4.75;;;;;;;17.90;100.00;100517.47;5013583;28;20034;-76
2023/07/28 04:01:13;;;;;;;11.35;6.50;;;;;;;17.91;100.00;100522.66;4996833;28;20030;-76
2023/07/28 04:03:40;;;;;;;12.00;5.15;;;;;;;17.90;100.00;100525.41;5012131;28;20030;-76
2023/07/28 04:06:10;;;;;;;11.85;6.20;;;;;;;17.91;100.00;100527.09;4996887;28;20106;-76
2023/07/28 04:08:35;;;;;;;8.65;5.05;;;;;;;17.91;100.00;100529.75;4998570;28;20061;-76
2023/07/28 04:11:00;;;;;;;10.63;5.38;;;;;;;17.91;100.00;100522.66;5006714;28;20264;-76
2023/07/28 04:13:26;;;;;;;11.95;5.88;;;;;;;17.91;100.00;100524.47;4978687;28;20042;-76
2023/07/28 04:15:51;;;;;;;9.52;5.20;;;;;;;17.91;100.00;100521.81;5014525;28;20065;-76
2023/07/28 04:18:18;;;;;;;10.15;4.63;;;;;;;17.91;100.00;100519.16;5015897;28;20088;-76
2023/07/28 04:20:43;;;;;;;8.00;4.97;;;;;;;17.91;100.00;100519.16;5000033;28;20030;-76
2023/07/28 04:23:08;;;;;;;12.10;5.57;;;;;;;17.92;100.00;100528.78;4996712;28;20562;-76
2023/07/28 04:25:34;;;;;;;9.50;4.78;;;;;;;17.93;100.00;100517.22;4992201;28;20306;-76
2023/07/28 04:27:59;;;;;;;8.07;5.32;;;;;;;17.92;100.00;100529.66;5016280;28;20097;-76
2023/07/28 04:30:24;;;;;;;9.80;5.05;;;;;;;17.92;100.00;100531.44;5002323;28;20042;-76
2023/07/28 04:32:50;;;;;;;10.82;5.60;;;;;;;17.92;100.00;100524.34;4996582;28;20038;-76
2023/07/28 04:35:15;;;;;;;7.45;4.70;;;;;;;17.93;100.00;100530.47;5011830;28;20044;-76
2023/07/28 04:37:41;;;;;;;8.73;5.40;;;;;;;17.92;100.00;100532.28;5012393;28;20202;-76
2023/07/28 04:40:08;;;;;;;7.75;4.60;;;;;;;17.93;100.00;100533.13;5005011;28;20296;-76
2023/07/28 04:42:34;;;;;;;10.20;4.50;;;;;;;17.91;100.00;100525.28;5015050;28;20029;-76
2023/07/28 04:44:59;;;;;;;12.80;5.10;;;;;;;17.92;100.00;100540.25;5014861;28;20030;-76
2023/07/28 04:47:24;;;;;;;8.45;5.78;;;;;;;17.93;100.00;100541.91;5015170;28;20029;-76
2023/07/28 04:49:50;;;;;;;11.43;5.30;;;;;;;17.93;100.00;100533.13;5009460;28;20061;-76
2023/07/28 04:52:15;;;;;;;10.18;4.95;;;;;;;17.94;100.00;100534.84;4996202;28;20045;-76
2023/07/28 04:54:40;;;;;;;11.48;5.15;;;;;;;17.93;100.00;100533.97;4999000;28;20037;-76
2023/07/28 04:57:06;;;;;;;7.70;4.85;;;;;;;17.93;100.00;100531.31;5015010;28;20041;-76
2023/07/28 04:59:31;;;;;;;7.53;4.78;;;;;;;17.94;100.00;100535.66;4996873;28;20341;-76
2023/07/28 05:01:56;;;;;;;10.05;4.50;;;;;;;17.94;100.00;100534.84;5015351;28;20029;-76
2023/07/28 05:04:22;;;;;;;10.30;5.63;;;;;;;17.94;100.00;100526.88;5019967;28;20389;-76
2023/07/28 05:06:47;;;;;;;8.82;4.93;;;;;;;17.95;100.00;100525.91;4994557;28;20057;-76
2023/07/28 05:09:13;;;;;;;8.95;5.53;;;;;;;17.95;100.00;100531.19;4994946;28;20038;-76
2023/07/28 05:11:38;;;;;;;14.93;6.18;;;;;;;17.95;100.00;100536.50;4988319;28;20038;-76
2023/07/28 05:14:06;;;;;;;9.15;4.70;;;;;;;17.94;100.00;100533.03;4995723;28;20244;-76
2023/07/28 05:16:31;;;;;;;8.63;4.90;;;;;;;17.95;100.00;100537.34;4979700;28;20467;-76
2023/07/28 05:18:57;;;;;;;10.02;5.32;;;;;;;17.95;100.00;100539.97;4976034;28;20093;-76
2023/07/28 05:21:22;;;;;;;9.13;5.60;;;;;;;17.95;100.00;100542.63;4989411;28;20210;-76
2023/07/28 05:23:48;;;;;;;9.05;4.78;;;;;;;17.95;100.00;100537.34;4995398;28;20296;-76
2023/07/28 05:26:13;;;;;;;8.05;5.03;;;;;;;17.96;100.00;100544.34;4991967;28;20038;-76
2023/07/28 05:28:38;;;;;;;10.00;5.35;;;;;;;17.96;100.00;100547.00;4998152;28;20083;-76
2023/07/28 05:31:05;;;;;;;10.68;4.68;;;;;;;17.97;100.00;100551.34;4999263;28;20090;-76
2023/07/28 05:33:31;;;;;;;7.82;5.00;;;;;;;17.97;100.00;100551.34;4990618;28;20034;-76
2023/07/28 05:36:03;;;;;;;10.68;4.60;;;;;;;17.98;100.00;100553.00;5003487;28;20522;-76
2023/07/28 05:38:29;;;;;;;8.02;5.10;;;;;;;17.98;100.00;100558.31;4998132;28;20124;-76
2023/07/28 05:40:58;;;;;;;9.75;5.53;;;;;;;17.99;100.00;100553.84;4999093;28;20039;-76
2023/07/28 05:43:23;;;;;;;10.95;5.70;;;;;;;18.00;100.00;100563.50;4979145;28;20031;-76
2023/07/28 05:45:49;;;;;;;13.77;5.75;;;;;;;17.99;100.00;100560.00;4978924;28;20064;-76
2023/07/28 05:48:14;;;;;;;10.25;5.68;;;;;;;18.00;100.00;100553.72;4976973;28;20061;-76
2023/07/28 05:50:39;;;;;;;7.32;4.78;;;;;;;18.01;100.00;100562.53;4978809;28;20034;-76
2023/07/28 05:53:05;;;;;;;5.20;4.20;;;;;;;18.00;100.00;100556.38;4987624;28;20046;-76
2023/07/28 05:55:30;;;;;;;12.82;5.85;;;;;;;18.01;100.00;100559.91;4977317;28;20082;-76
2023/07/28 05:57:55;;;;;;;13.73;5.15;;;;;;;18.02;100.00;100569.50;4993450;28;20426;-76
2023/07/28 06:00:21;;;;;;;9.55;5.95;;;;;;;18.01;100.00;100565.19;4994297;28;20337;-76
2023/07/28 06:02:47;;;;;;;11.30;5.32;;;;;;;18.02;100.00;100572.16;4980960;28;20101;-76
2023/07/28 06:05:12;;;;;;;7.28;4.82;;;;;;;18.01;100.00;100573.97;5010196;28;20364;-76
2023/07/28 06:07:38;;;;;;;8.80;5.30;;;;;;;18.02;100.00;100580.13;4997265;28;20038;-76
2023/07/28 06:10:04;;;;;;;13.43;5.63;;;;;;;18.02;100.00;100580.13;5003546;28;20033;-76
2023/07/28 06:12:29;;;;;;;7.38;5.07;;;;;;;18.03;100.00;100579.16;5007176;28;20069;-76
2023/07/28 06:14:55;;;;;;;10.35;5.18;;;;;;;18.03;100.00;100581.81;5008769;28;20025;-76
2023/07/28 06:17:20;;;;;;;7.95;4.88;;;;;;;18.03;100.00;100587.94;5015585;28;20228;-76
2023/07/28 06:19:45;;;;;;;7.38;5.07;;;;;;;18.04;100.00;100588.78;5015605;28;20282;-76
2023/07/28 06:22:11;;;;;;;7.68;4.63;;;;;;;18.04;100.00;100594.09;5015662;28;20033;-76
2023/07/28 06:24:36;;;;;;;5.25;4.60;;;;;;;18.03;100.00;100593.25;5014597;28;20030;-76
2023/07/28 06:27:07;;;;;;;6.50;4.35;;;;;;;18.05;100.00;100597.59;5015337;28;20061;-76
2023/07/28 06:29:32;;;;;;;8.45;4.55;;;;;;;18.06;100.00;100607.22;5012599;28;20350;-76
2023/07/28 06:31:58;;;;;;;11.52;5.97;;;;;;;18.05;100.00;100603.75;5014949;28;20101;-76
2023/07/28 06:34:25;;;;;;;9.18;5.18;;;;;;;18.05;100.00;100609.03;5013454;28;20040;-76
2023/07/28 06:36:51;;;;;;;5.10;4.60;;;;;;;18.07;100.00;100615.06;5019967;28;20048;-76
2023/07/28 06:39:17;;;;;;;5.15;4.20;;;;;;;18.07;100.00;100614.22;5021413;28;20288;-76
2023/07/28 06:41:42;;;;;;;6.00;4.57;;;;;;;18.07;100.00;100623.00;5025834;28;20056;-76
2023/07/28 06:44:08;;;;;;;10.65;4.80;;;;;;;18.07;100.00;100625.66;5017914;28;20025;-76
2023/07/28 06:46:33;;;;;;;6.45;4.60;;;;;;;18.08;100.00;100619.41;5014600;28;20303;-76
2023/07/28 06:48:59;;;;;;;9.85;4.90;;;;;;;18.08;100.00;100615.91;5015238;28;20464;-76
2023/07/28 06:51:25;;;;;;;7.28;4.43;;;;;;;18.08;100.00;100621.19;5014616;28;20065;-76
2023/07/28 06:53:50;;;;;;;5.30;4.32;;;;;;;18.09;100.00;100617.59;5015412;28;20114;-76
2023/07/28 06:56:16;;;;;;;7.47;4.68;;;;;;;18.08;100.00;100619.41;5015250;28;20041;-76
2023/07/28 06:58:41;;;;;;;4.38;3.85;;;;;;;18.08;100.00;100619.41;5014744;28;20041;-76
2023/07/28 07:01:10;;;;;;;6.40;4.18;;;;;;;18.09;100.00;100620.25;5015051;28;20042;-76
2023/07/28 07:03:36;;;;;;;6.47;4.10;;;;;;;18.09;100.00;100633.50;5016176;28;20362;-76
2023/07/28 07:06:01;;;;;;;5.18;3.72;;;;;;;18.10;100.00;100635.16;5013886;28;20054;-76
2023/07/28 07:08:27;;;;;;;12.85;4.38;;;;;;;18.09;100.00;100636.16;5014293;28;20105;-76
2023/07/28 07:10:52;;;;;;;7.22;3.47;;;;;;;18.09;100.00;100634.34;4999887;28;20042;-76
2023/07/28 07:13:19;;;;;;;4.85;3.42;;;;;;;18.10;100.00;100645.78;5011298;28;20260;-76
2023/07/28 07:15:45;;;;;;;6.22;4.38;;;;;;;18.11;100.00;100644.81;5014097;28;20331;-76
2023/07/28 07:18:11;;;;;;;4.25;3.63;;;;;;;18.11;100.00;100648.31;5006811;28;20037;-76
2023/07/28 07:20:38;;;;;;;3.80;3.35;;;;;;;18.12;100.00;100651.78;5007408;28;20057;-76
2023/07/28 07:23:06;;;;;;;3.40;3.10;;;;;;;18.12;100.00;100654.44;5011407;28;20033;-76
2023/07/28 07:25:32;;;;;;;6.53;3.65;;;;;;;18.13;100.00;100658.78;5012434;28;20096;-76
2023/07/28 07:27:58;;;;;;;4.13;3.60;;;;;;;18.12;100.00;100652.66;5013755;28;20046;-76
2023/07/28 07:30:23;;;;;;;6.97;3.42;;;;;;;18.14;100.00;100652.56;5011840;28;20046;-76
2023/07/28 07:32:49;;;;;;;3.65;2.92;;;;;;;18.13;100.00;100651.69;5013283;28;20034;-76
2023/07/28 07:35:15;;;;;;;3.42;3.15;;;;;;;18.12;100.00;100650.00;5014682;28;20045;-76
2023/07/28 07:37:40;;;;;;;3.67;3.13;;;;;;;18.12;100.00;100655.31;5024075;28;20029;-76
2023/07/28 07:40:07;;;;;;;5.85;3.00;;;;;;;18.12;100.00;100650.00;5024492;28;20113;-76
2023/07/28 07:43:03;;;;;;;4.78;3.60;;;;;;;18.15;100.00;100654.22;5023906;28;20202;-76
2023/07/28 07:45:29;;;;;;;3.10;2.83;;;;;;;18.16;100.00;100658.56;5003745;28;20100;-76
2023/07/28 07:47:55;;;;;;;4.47;3.40;;;;;;;18.16;100.00;100653.28;5010341;28;20393;-76
2023/07/28 07:50:21;;;;;;;5.72;3.45;;;;;;;18.16;100.00;100661.22;5013071;28;20041;-76
2023/07/28 07:52:47;;;;;;;4.68;2.97;;;;;;;18.18;100.00;100664.59;5018075;28;20037;-76
2023/07/28 07:55:13;;;;;;;4.93;3.30;;;;;;;18.19;100.00;100667.16;5014857;28;20050;-76
2023/07/28 07:57:39;;;;;;;4.05;3.28;;;;;;;18.21;100.00;100667.88;4995535;28;20077;-77
2023/07/28 08:00:06;;;;;;;6.88;3.30;;;;;;;18.23;100.00;100671.25;5013535;28;20038;-76
2023/07/28 08:02:31;;;;;;;10.07;4.20;;;;;;;18.26;100.00;100672.81;4995320;28;20030;-76
2023/07/28 08:04:57;;;;;;;7.03;4.00;;;;;;;18.27;100.00;100669.22;5015911;28;20127;-76
2023/07/28 08:07:23;;;;;;;6.30;3.13;;;;;;;18.29;100.00;100677.88;5012732;28;20050;-76
2023/07/28 08:09:49;;;;;;;5.30;3.20;;;;;;;18.32;100.00;100682.09;5008002;28;20033;-76
2023/07/28 08:12:15;;;;;;;8.00;4.00;;;;;;;18.34;100.00;100682.84;5012570;28;20104;-76
2023/07/28 08:14:40;;;;;;;7.68;3.75;;;;;;;18.35;100.00;100681.88;5010590;28;20025;-76
2023/07/28 08:17:07;;;;;;;3.22;2.92;;;;;;;18.36;100.00;100678.28;4989868;28;20206;-76
2023/07/28 08:19:32;;;;;;;5.90;2.90;;;;;;;18.36;100.00;100684.41;5010767;28;20392;-76
2023/07/28 08:21:57;;;;;;;3.97;3.15;;;;;;;18.38;100.00;100686.94;5013026;28;20053;-76
2023/07/28 08:24:23;;;;;;;4.78;3.50;;;;;;;18.40;100.00;100685.84;5012661;28;20038;-76
2023/07/28 08:26:49;;;;;;;6.43;4.07;;;;;;;18.41;100.00;100678.78;5012839;28;20129;-76
2023/07/28 08:29:15;;;;;;;6.47;3.47;;;;;;;18.42;100.00;100683.94;5013233;28;20222;-76
2023/07/28 08:31:41;;;;;;;4.47;3.40;;;;;;;18.43;100.00;100684.81;5012648;28;20088;-76
2023/07/28 08:34:07;;;;;;;5.15;3.45;;;;;;;18.43;100.00;100682.16;5014187;28;20041;-76
2023/07/28 08:36:33;;;;;;;6.75;3.80;;;;;;;18.46;100.00;100696.97;5009066;28;20053;-76
2023/07/28 08:38:58;;;;;;;8.82;5.22;;;;;;;18.47;100.00;100690.72;5008721;28;20038;-76
2023/07/28 08:41:24;;;;;;;9.45;3.95;;;;;;;18.49;100.00;100691.44;5005967;28;20018;-76
2023/07/28 08:43:51;;;;;;;6.18;3.83;;;;;;;18.50;100.00;100699.28;5011915;28;20044;-76
2023/07/28 08:46:18;;;;;;;10.15;4.20;;;;;;;18.51;100.00;100698.31;5012053;28;20363;-76
2023/07/28 08:48:43;;;;;;;8.20;5.13;;;;;;;18.53;100.00;100704.31;5010360;28;20033;-76
2023/07/28 08:51:11;;;;;;;8.98;4.32;;;;;;;18.55;100.00;100701.56;5011207;28;20036;-76
2023/07/28 08:53:37;;;;;;;11.13;4.22;;;;;;;18.56;100.00;100697.97;5010846;28;20033;-76
2023/07/28 08:56:03;;;;;;;3.42;3.13;;;;;;;18.59;100.00;100700.34;5011479;28;20033;-76
2023/07/28 08:58:29;;;;;;;4.68;4.22;;;;;;;18.58;100.00;100696.88;5008731;28;20030;-76
2023/07/28 09:00:55;;;;;;;10.82;4.25;;;;;;;18.62;100.00;100700.13;4993246;28;20032;-76
2023/07/28 09:03:21;;;;;;;8.95;5.43;;;;;;;18.64;100.00;100698.19;5010019;28;20021;-76
2023/07/28 09:05:47;;;;;;;8.82;5.05;;;;;;;18.67;100.00;100700.63;5023156;28;20045;-76
2023/07/28 09:08:14;;;;;;;6.82;4.72;;;;;;;18.68;100.00;100699.69;5013035;28;20064;-76
2023/07/28 09:10:51;;;;;;;7.32;4.85;;;;;;;18.71;100.00;100698.59;5008916;28;20065;-76
2023/07/28 09:13:17;;;;;;;8.77;4.85;;;;;;;18.72;100.00;100698.47;5012481;28;20109;-76
2023/07/28 09:15:43;;;;;;;7.40;5.38;;;;;;;18.75;100.00;100703.53;5012443;28;20195;-76
2023/07/28 09:18:10;;;;;;;7.05;4.55;;;;;;;18.76;100.00;100697.25;5012804;28;20042;-76
2023/07/28 09:20:38;;;;;;;4.63;4.20;;;;;;;18.77;100.00;100701.63;5012046;28;20256;-76
2023/07/28 09:23:05;;;;;;;9.05;4.90;;;;;;;18.80;100.00;100695.22;4994925;28;20218;-76
2023/07/28 09:25:32;;;;;;;8.95;4.80;;;;;;;18.82;100.00;100700.44;5011913;28;20095;-76
2023/07/28 09:27:57;;;;;;;6.90;4.38;;;;;;;18.84;100.00;100706.47;5013017;28;20041;-76
2023/07/28 09:30:24;;;;;;;5.38;4.05;;;;;;;18.85;100.00;100710.81;5012243;28;20041;-76
2023/07/28 09:32:52;;;;;;;4.40;4.00;;;;;;;18.85;100.00;100714.31;5011364;28;20100;-76
2023/07/28 09:35:18;;;;;;;5.35;3.85;;;;;;;18.86;100.00;100712.50;5023714;28;20033;-76
2023/07/28 09:37:47;;;;;;;6.65;4.15;;;;;;;18.87;100.00;100716.84;5012775;28;20026;-76
2023/07/28 09:40:23;;;;;;;7.03;4.43;;;;;;;18.88;100.00;100726.50;5012898;28;20030;-76
2023/07/28 09:42:49;;;;;;;6.68;4.50;;;;;;;18.89;100.00;100722.88;5012339;28;20049;-76
2023/07/28 09:45:17;;;;;;;5.60;3.80;;;;;;;18.89;100.00;100715.75;5012687;28;20044;-76
2023/07/28 09:47:47;;;;;;;8.38;4.22;;;;;;;18.90;100.00;100722.78;5012718;28;20041;-76
2023/07/28 09:50:15;;;;;;;4.18;3.55;;;;;;;18.90;100.00;100724.56;5012272;28;20198;-76
2023/07/28 09:52:46;;;;;;;6.07;3.90;;;;;;;18.90;100.00;100725.41;5001890;28;20060;-76
2023/07/28 09:55:13;;;;;;;8.68;4.15;;;;;;;18.92;100.00;100726.16;5011740;28;20288;-76
2023/07/28 09:58:07;;;;;;;11.07;4.15;;;;;;;18.92;100.00;100726.16;5010845;28;20037;-76
2023/07/28 10:00:33;;;;;;;9.80;4.15;;;;;;;18.93;100.00;100719.03;5010260;28;20077;-76
2023/07/28 10:03:00;;;;;;;3.92;3.40;;;;;;;18.94;100.00;100734.81;5008967;28;20048;-76
2023/07/28 10:05:26;;;;;;;4.22;3.92;;;;;;;18.95;100.00;100740.97;5011964;28;20041;-76
2023/07/28 10:07:51;;;;;;;7.28;3.53;;;;;;;18.96;100.00;100737.38;4992218;28;20335;-76
2023/07/28 10:10:18;;;;;;;7.15;3.67;;;;;;;18.95;100.00;100740.97;5000464;28;20045;-76
2023/07/28 10:12:50;;;;;;;4.93;3.40;;;;;;;18.96;100.00;100735.56;5002055;28;20152;-76
2023/07/28 10:15:19;;;;;;;7.53;3.58;;;;;;;18.95;100.00;100739.16;5018755;28;20141;-76
2023/07/28 10:17:52;;;;;;;;;;;;;;;18.96;100.00;100743.50;5022809;28;20105;-76
2023/07/28 10:20:38;;;;;;;7.82;4.00;;;;;;;18.96;100.00;100743.50;5023593;28;19917;-76
2023/07/28 10:23:16;;;;;;;4.68;3.05;;;;;;;18.98;100.00;100743.41;5013345;28;20121;-76
2023/07/28 10:25:44;;;;;;;3.45;2.90;;;;;;;18.96;100.00;100746.16;5021584;28;20384;-76
2023/07/28 10:28:31;;;;;;;6.50;3.13;;;;;;;18.98;100.00;100735.44;5033601;28;20025;-76
2023/07/28 10:30:57;;;;;;;6.63;3.58;;;;;;;19.00;100.00;100746.78;5035820;28;20104;-76
2023/07/28 10:33:33;;;;;;;4.35;3.25;;;;;;;19.02;100.00;100749.31;5035271;28;20240;-76
2023/07/28 10:35:59;;;;;;;7.07;3.30;;;;;;;19.03;100.00;100746.53;5035059;28;20072;-76
2023/07/28 10:38:30;;;;;;;5.20;2.90;;;;;;;19.06;100.00;100753.41;5028944;28;20068;-76
2023/07/28 10:41:05;;;;;;;8.43;3.92;;;;;;;19.07;100.00;100755.94;5023521;28;20030;-76
2023/07/28 10:43:31;;;;;;;5.35;3.53;;;;;;;19.07;100.00;100750.63;5022249;28;20358;-76
2023/07/28 10:45:56;;;;;;;4.30;3.30;;;;;;;19.09;100.00;100747.88;5024752;28;20348;-76
2023/07/28 10:48:22;;;;;;;5.45;3.25;;;;;;;19.09;100.00;100756.66;5022621;28;20045;-76
2023/07/28 10:50:50;;;;;;;4.60;3.28;;;;;;;19.12;100.00;100751.13;5024902;28;20072;-76
2023/07/28 10:53:15;;;;;;;3.25;2.90;;;;;;;19.14;100.00;100753.66;5024336;28;20040;-76
2023/07/28 10:55:41;;;;;;;7.50;3.03;;;;;;;19.13;100.00;100752.81;5022214;28;20104;-77
2023/07/28 10:58:06;;;;;;;8.88;3.20;;;;;;;19.15;100.00;100761.47;5025780;28;20029;-76
2023/07/28 11:00:31;;;;;;;4.45;3.10;;;;;;;19.16;100.00;100757.88;4996463;28;20222;-76
2023/07/28 11:02:57;;;;;;;4.43;3.08;;;;;;;19.16;100.00;100763.19;5009181;28;20038;-76
2023/07/28 11:05:24;;;;;;;6.35;2.97;;;;;;;19.18;100.00;100760.41;5016664;28;20271;-76
2023/07/28 11:07:54;;;;;;;4.07;2.75;;;;;;;19.18;100.00;100760.41;5033668;28;20075;-76
2023/07/28 11:10:20;;;;;;;3.30;2.75;;;;;;;19.20;100.00;100768.28;5006529;28;20366;-76
2023/07/28 11:12:48;;;;;;;5.10;3.05;;;;;;;19.20;100.00;100760.31;5010928;28;20041;-76